Terminal Aerodrome Forecast
Issued by NWS La Crosse, WI

Home | Current Version | Previous Version | Text Only | Print | Product List | Glossary On
Versions: 1 2 3 4 5 6 7 8 9 10 11 12 13 14 15 16 17 18 19 20 21 22 23 24 25
000
FTUS43 KARX 221125
TAFLSE
TAF
KLSE 221125Z 2212/2312 12005KT P6SM SKC
     FM221600 16010KT P6SM SCT040
     FM230200 15007KT P6SM SCT060 BKN250
     FM230800 17007KT P6SM -SHRA BKN040=

USA.gov is the U.S. government's official web portal to all federal, state and local government web resources and services.